sensor_id;sensor_type;location;lat;lon;timestamp;temperature;humidity
21104;DHT22;10710;53.398;-1.514;2023-02-15T00:01:56;4.00;99.90
21104;DHT22;10710;53.398;-1.514;2023-02-15T00:04:24;4.00;99.90
21104;DHT22;10710;53.398;-1.514;2023-02-15T00:07:10;4.00;99.90
21104;DHT22;10710;53.398;-1.514;2023-02-15T00:09:36;4.00;99.90
21104;DHT22;10710;53.398;-1.514;2023-02-15T00:12:01;4.00;99.90
21104;DHT22;10710;53.398;-1.514;2023-02-15T00:14:27;3.90;99.90
21104;DHT22;10710;53.398;-1.514;2023-02-15T00:16:52;3.80;99.90
21104;DHT22;10710;53.398;-1.514;2023-02-15T00:19:20;3.80;99.90
21104;DHT22;10710;53.398;-1.514;2023-02-15T00:21:47;3.80;99.90
21104;DHT22;10710;53.398;-1.514;2023-02-15T00:24:15;3.80;99.90
21104;DHT22;10710;53.398;-1.514;2023-02-15T00:26:42;3.80;99.90
21104;DHT22;10710;53.398;-1.514;2023-02-15T00:29:09;3.80;99.90
21104;DHT22;10710;53.398;-1.514;2023-02-15T00:31:35;3.80;99.90
21104;DHT22;10710;53.398;-1.514;2023-02-15T00:34:07;3.70;99.90
21104;DHT22;10710;53.398;-1.514;2023-02-15T00:36:33;3.80;99.90
21104;DHT22;10710;53.398;-1.514;2023-02-15T00:38:58;3.70;99.90
21104;DHT22;10710;53.398;-1.514;2023-02-15T00:41:24;3.70;99.90
21104;DHT22;10710;53.398;-1.514;2023-02-15T00:43:50;3.70;99.90
21104;DHT22;10710;53.398;-1.514;2023-02-15T00:46:16;3.60;99.90
21104;DHT22;10710;53.398;-1.514;2023-02-15T00:48:41;3.60;99.90
21104;DHT22;10710;53.398;-1.514;2023-02-15T00:51:07;3.50;99.90
21104;DHT22;10710;53.398;-1.514;2023-02-15T00:53:33;3.50;99.90
21104;DHT22;10710;53.398;-1.514;2023-02-15T00:55:58;3.50;99.90
21104;DHT22;10710;53.398;-1.514;2023-02-15T00:58:25;3.40;99.90
21104;DHT22;10710;53.398;-1.514;2023-02-15T01:00:51;3.40;99.90
21104;DHT22;10710;53.398;-1.514;2023-02-15T01:03:18;3.40;99.90
21104;DHT22;10710;53.398;-1.514;2023-02-15T01:05:45;3.40;99.90
21104;DHT22;10710;53.398;-1.514;2023-02-15T01:08:11;3.40;99.90
21104;DHT22;10710;53.398;-1.514;2023-02-15T01:10:37;3.40;99.90
21104;DHT22;10710;53.398;-1.514;2023-02-15T01:13:03;3.30;99.90
21104;DHT22;10710;53.398;-1.514;2023-02-15T01:15:29;3.30;99.90
21104;DHT22;10710;53.398;-1.514;2023-02-15T01:17:55;3.20;99.90
21104;DHT22;10710;53.398;-1.514;2023-02-15T01:20:24;3.30;99.90
21104;DHT22;10710;53.398;-1.514;2023-02-15T01:22:50;3.30;99.90
21104;DHT22;10710;53.398;-1.514;2023-02-15T01:25:20;3.30;99.90
21104;DHT22;10710;53.398;-1.514;2023-02-15T01:27:46;3.20;99.90
21104;DHT22;10710;53.398;-1.514;2023-02-15T01:30:13;3.20;99.90
21104;DHT22;10710;53.398;-1.514;2023-02-15T01:32:39;3.20;99.90
21104;DHT22;10710;53.398;-1.514;2023-02-15T01:35:05;3.20;99.90
21104;DHT22;10710;53.398;-1.514;2023-02-15T01:37:32;3.20;99.90
21104;DHT22;10710;53.398;-1.514;2023-02-15T01:39:59;3.10;99.90
21104;DHT22;10710;53.398;-1.514;2023-02-15T01:42:26;3.10;99.90
21104;DHT22;10710;53.398;-1.514;2023-02-15T01:44:56;3.00;99.90
21104;DHT22;10710;53.398;-1.514;2023-02-15T01:52:54;3.00;99.90
21104;DHT22;10710;53.398;-1.514;2023-02-15T01:55:22;3.00;99.90
21104;DHT22;10710;53.398;-1.514;2023-02-15T01:57:49;3.00;99.90
21104;DHT22;10710;53.398;-1.514;2023-02-15T02:00:15;3.10;99.90
21104;DHT22;10710;53.398;-1.514;2023-02-15T02:02:43;3.10;99.90
21104;DHT22;10710;53.398;-1.514;2023-02-15T02:05:10;3.10;99.90
21104;DHT22;10710;53.398;-1.514;2023-02-15T02:07:39;3.00;99.90
21104;DHT22;10710;53.398;-1.514;2023-02-15T02:10:09;3.10;99.90
21104;DHT22;10710;53.398;-1.514;2023-02-15T02:12:37;3.10;99.90
21104;DHT22;10710;53.398;-1.514;2023-02-15T02:15:05;3.00;99.90
21104;DHT22;10710;53.398;-1.514;2023-02-15T02:20:52;3.00;99.90
21104;DHT22;10710;53.398;-1.514;2023-02-15T02:34:51;3.10;99.90
21104;DHT22;10710;53.398;-1.514;2023-02-15T02:40:17;3.10;99.90
21104;DHT22;10710;53.398;-1.514;2023-02-15T02:46:34;3.10;99.90
21104;DHT22;10710;53.398;-1.514;2023-02-15T02:49:01;3.10;99.90
21104;DHT22;10710;53.398;-1.514;2023-02-15T02:51:27;3.10;99.90
21104;DHT22;10710;53.398;-1.514;2023-02-15T02:53:59;3.00;99.90
21104;DHT22;10710;53.398;-1.514;2023-02-15T02:56:34;3.00;99.90
21104;DHT22;10710;53.398;-1.514;2023-02-15T02:59:17;3.00;99.90
21104;DHT22;10710;53.398;-1.514;2023-02-15T03:01:55;3.10;99.90
21104;DHT22;10710;53.398;-1.514;2023-02-15T03:04:28;3.10;99.90
21104;DHT22;10710;53.398;-1.514;2023-02-15T03:06:59;3.10;99.90
21104;DHT22;10710;53.398;-1.514;2023-02-15T03:12:00;3.10;99.90
21104;DHT22;10710;53.398;-1.514;2023-02-15T03:14:28;3.10;99.90
21104;DHT22;10710;53.398;-1.514;2023-02-15T03:16:55;3.10;99.90
21104;DHT22;10710;53.398;-1.514;2023-02-15T03:19:27;3.10;99.90
21104;DHT22;10710;53.398;-1.514;2023-02-15T03:22:17;3.10;99.90
21104;DHT22;10710;53.398;-1.514;2023-02-15T03:27:37;3.10;99.90
21104;DHT22;10710;53.398;-1.514;2023-02-15T03:30:06;3.10;99.90
21104;DHT22;10710;53.398;-1.514;2023-02-15T03:32:33;3.10;99.90
21104;DHT22;10710;53.398;-1.514;2023-02-15T03:35:00;3.00;99.90
21104;DHT22;10710;53.398;-1.514;2023-02-15T03:37:34;3.00;99.90
21104;DHT22;10710;53.398;-1.514;2023-02-15T03:40:07;3.00;99.90
21104;DHT22;10710;53.398;-1.514;2023-02-15T03:43:00;3.00;99.90
21104;DHT22;10710;53.398;-1.514;2023-02-15T03:45:31;3.00;99.90
21104;DHT22;10710;53.398;-1.514;2023-02-15T03:47:58;3.10;99.90
21104;DHT22;10710;53.398;-1.514;2023-02-15T03:50:31;3.10;99.90
21104;DHT22;10710;53.398;-1.514;2023-02-15T03:53:18;3.10;99.90
21104;DHT22;10710;53.398;-1.514;2023-02-15T03:55:47;3.10;99.90
21104;DHT22;10710;53.398;-1.514;2023-02-15T03:58:13;3.10;99.90
21104;DHT22;10710;53.398;-1.514;2023-02-15T04:00:59;3.10;99.90
21104;DHT22;10710;53.398;-1.514;2023-02-15T04:03:50;3.10;99.90
21104;DHT22;10710;53.398;-1.514;2023-02-15T04:06:18;3.10;99.90
21104;DHT22;10710;53.398;-1.514;2023-02-15T04:08:43;3.10;99.90
21104;DHT22;10710;53.398;-1.514;2023-02-15T04:11:28;3.10;99.90
21104;DHT22;10710;53.398;-1.514;2023-02-15T04:13:54;3.10;99.90
21104;DHT22;10710;53.398;-1.514;2023-02-15T04:16:25;3.10;99.90
21104;DHT22;10710;53.398;-1.514;2023-02-15T04:18:51;3.10;99.90
21104;DHT22;10710;53.398;-1.514;2023-02-15T04:21:35;3.20;99.90
21104;DHT22;10710;53.398;-1.514;2023-02-15T04:24:20;3.20;99.90
21104;DHT22;10710;53.398;-1.514;2023-02-15T04:27:04;3.10;99.90
21104;DHT22;10710;53.398;-1.514;2023-02-15T04:29:31;3.10;99.90
21104;DHT22;10710;53.398;-1.514;2023-02-15T04:31:58;3.10;99.90
21104;DHT22;10710;53.398;-1.514;2023-02-15T04:34:24;3.10;99.90
21104;DHT22;10710;53.398;-1.514;2023-02-15T04:36:50;3.10;99.90
21104;DHT22;10710;53.398;-1.514;2023-02-15T04:39:17;3.10;99.90
21104;DHT22;10710;53.398;-1.514;2023-02-15T04:41:44;3.10;99.90
21104;DHT22;10710;53.398;-1.514;2023-02-15T04:44:10;3.20;99.90
21104;DHT22;10710;53.398;-1.514;2023-02-15T04:46:36;3.10;99.90
21104;DHT22;10710;53.398;-1.514;2023-02-15T04:49:02;3.20;99.90
21104;DHT22;10710;53.398;-1.514;2023-02-15T04:51:28;3.20;99.90
21104;DHT22;10710;53.398;-1.514;2023-02-15T04:53:54;3.20;99.90
21104;DHT22;10710;53.398;-1.514;2023-02-15T04:56:20;3.10;99.90
21104;DHT22;10710;53.398;-1.514;2023-02-15T04:58:46;3.10;99.90
21104;DHT22;10710;53.398;-1.514;2023-02-15T05:01:12;3.10;99.90
21104;DHT22;10710;53.398;-1.514;2023-02-15T05:03:38;3.10;99.90
21104;DHT22;10710;53.398;-1.514;2023-02-15T05:06:04;3.20;99.90
21104;DHT22;10710;53.398;-1.514;2023-02-15T05:08:30;3.20;99.90
21104;DHT22;10710;53.398;-1.514;2023-02-15T05:10:56;3.20;99.90
21104;DHT22;10710;53.398;-1.514;2023-02-15T05:13:22;3.30;99.90
21104;DHT22;10710;53.398;-1.514;2023-02-15T05:15:48;3.30;99.90
21104;DHT22;10710;53.398;-1.514;2023-02-15T05:18:15;3.40;99.90
21104;DHT22;10710;53.398;-1.514;2023-02-15T05:20:41;3.40;99.90
21104;DHT22;10710;53.398;-1.514;2023-02-15T05:23:07;3.30;99.90
21104;DHT22;10710;53.398;-1.514;2023-02-15T05:25:32;3.40;99.90
21104;DHT22;10710;53.398;-1.514;2023-02-15T05:28:16;3.40;99.90
21104;DHT22;10710;53.398;-1.514;2023-02-15T05:30:47;3.40;99.90
21104;DHT22;10710;53.398;-1.514;2023-02-15T05:33:13;3.50;99.90
21104;DHT22;10710;53.398;-1.514;2023-02-15T05:35:38;3.50;99.90
21104;DHT22;10710;53.398;-1.514;2023-02-15T05:38:04;3.50;99.90
21104;DHT22;10710;53.398;-1.514;2023-02-15T05:40:30;3.50;99.90
21104;DHT22;10710;53.398;-1.514;2023-02-15T05:42:56;3.60;99.90
21104;DHT22;10710;53.398;-1.514;2023-02-15T05:45:22;3.60;99.90
21104;DHT22;10710;53.398;-1.514;2023-02-15T05:47:48;3.60;99.90
21104;DHT22;10710;53.398;-1.514;2023-02-15T05:50:14;3.60;99.90
21104;DHT22;10710;53.398;-1.514;2023-02-15T05:52:40;3.50;99.90
21104;DHT22;10710;53.398;-1.514;2023-02-15T05:55:06;3.50;99.90
21104;DHT22;10710;53.398;-1.514;2023-02-15T05:57:34;3.50;99.90
21104;DHT22;10710;53.398;-1.514;2023-02-15T06:00:00;3.60;99.90
21104;DHT22;10710;53.398;-1.514;2023-02-15T06:02:26;3.50;99.90
21104;DHT22;10710;53.398;-1.514;2023-02-15T06:04:51;3.50;99.90
21104;DHT22;10710;53.398;-1.514;2023-02-15T06:07:17;3.50;99.90
21104;DHT22;10710;53.398;-1.514;2023-02-15T06:09:43;3.50;99.90
21104;DHT22;10710;53.398;-1.514;2023-02-15T06:12:08;3.50;99.90
21104;DHT22;10710;53.398;-1.514;2023-02-15T06:14:34;3.50;99.90
21104;DHT22;10710;53.398;-1.514;2023-02-15T06:17:00;3.60;99.90
21104;DHT22;10710;53.398;-1.514;2023-02-15T06:19:25;3.50;99.90
21104;DHT22;10710;53.398;-1.514;2023-02-15T06:21:51;3.50;99.90
21104;DHT22;10710;53.398;-1.514;2023-02-15T06:24:17;3.40;99.90
21104;DHT22;10710;53.398;-1.514;2023-02-15T06:26:42;3.50;99.90
21104;DHT22;10710;53.398;-1.514;2023-02-15T06:29:08;3.50;99.90
21104;DHT22;10710;53.398;-1.514;2023-02-15T06:31:34;3.60;99.90
21104;DHT22;10710;53.398;-1.514;2023-02-15T06:33:59;3.50;99.90
21104;DHT22;10710;53.398;-1.514;2023-02-15T06:36:28;3.50;99.90
21104;DHT22;10710;53.398;-1.514;2023-02-15T06:38:54;3.60;99.90
21104;DHT22;10710;53.398;-1.514;2023-02-15T06:41:20;3.50;99.90
21104;DHT22;10710;53.398;-1.514;2023-02-15T06:43:46;3.50;99.90
21104;DHT22;10710;53.398;-1.514;2023-02-15T06:46:12;3.40;99.90
21104;DHT22;10710;53.398;-1.514;2023-02-15T06:48:37;3.30;99.90
21104;DHT22;10710;53.398;-1.514;2023-02-15T06:51:03;3.30;99.90
21104;DHT22;10710;53.398;-1.514;2023-02-15T06:53:29;3.20;99.90
21104;DHT22;10710;53.398;-1.514;2023-02-15T06:56:02;3.20;99.90
21104;DHT22;10710;53.398;-1.514;2023-02-15T06:58:28;3.20;99.90
21104;DHT22;10710;53.398;-1.514;2023-02-15T07:00:54;3.20;99.90
21104;DHT22;10710;53.398;-1.514;2023-02-15T07:03:20;3.20;99.90
21104;DHT22;10710;53.398;-1.514;2023-02-15T07:05:45;3.20;99.90
21104;DHT22;10710;53.398;-1.514;2023-02-15T07:08:13;3.20;99.90
21104;DHT22;10710;53.398;-1.514;2023-02-15T07:10:38;3.20;99.90
21104;DHT22;10710;53.398;-1.514;2023-02-15T07:13:04;3.20;99.90
21104;DHT22;10710;53.398;-1.514;2023-02-15T07:15:30;3.20;99.90
21104;DHT22;10710;53.398;-1.514;2023-02-15T07:17:57;3.20;99.90
21104;DHT22;10710;53.398;-1.514;2023-02-15T07:20:23;3.20;99.90
21104;DHT22;10710;53.398;-1.514;2023-02-15T07:22:50;3.20;99.90
21104;DHT22;10710;53.398;-1.514;2023-02-15T07:25:16;3.10;99.90
21104;DHT22;10710;53.398;-1.514;2023-02-15T07:27:42;3.10;99.90
21104;DHT22;10710;53.398;-1.514;2023-02-15T07:30:10;3.00;99.90
21104;DHT22;10710;53.398;-1.514;2023-02-15T07:32:36;3.10;99.90
21104;DHT22;10710;53.398;-1.514;2023-02-15T07:35:22;3.10;99.90
21104;DHT22;10710;53.398;-1.514;2023-02-15T07:37:48;3.10;99.90
21104;DHT22;10710;53.398;-1.514;2023-02-15T07:40:13;3.20;99.90
21104;DHT22;10710;53.398;-1.514;2023-02-15T07:42:39;3.20;99.90
21104;DHT22;10710;53.398;-1.514;2023-02-15T07:45:05;3.10;99.90
21104;DHT22;10710;53.398;-1.514;2023-02-15T07:47:31;3.20;99.90
21104;DHT22;10710;53.398;-1.514;2023-02-15T07:49:56;3.20;99.90
21104;DHT22;10710;53.398;-1.514;2023-02-15T07:52:22;3.30;99.90
21104;DHT22;10710;53.398;-1.514;2023-02-15T07:54:48;3.20;99.90
21104;DHT22;10710;53.398;-1.514;2023-02-15T07:57:13;3.30;99.90
21104;DHT22;10710;53.398;-1.514;2023-02-15T07:59:39;3.30;99.90
21104;DHT22;10710;53.398;-1.514;2023-02-15T08:02:09;3.30;99.90
21104;DHT22;10710;53.398;-1.514;2023-02-15T08:04:35;3.30;99.90
21104;DHT22;10710;53.398;-1.514;2023-02-15T08:07:01;3.30;99.90
21104;DHT22;10710;53.398;-1.514;2023-02-15T08:09:26;3.30;99.90
21104;DHT22;10710;53.398;-1.514;2023-02-15T08:11:52;3.30;99.90
21104;DHT22;10710;53.398;-1.514;2023-02-15T08:14:19;3.40;99.90
21104;DHT22;10710;53.398;-1.514;2023-02-15T08:16:54;3.40;99.90
21104;DHT22;10710;53.398;-1.514;2023-02-15T08:21:55;3.50;99.90
21104;DHT22;10710;53.398;-1.514;2023-02-15T08:24:24;3.60;99.90
21104;DHT22;10710;53.398;-1.514;2023-02-15T08:26:51;3.50;99.90
21104;DHT22;10710;53.398;-1.514;2023-02-15T08:29:18;3.50;99.90
21104;DHT22;10710;53.398;-1.514;2023-02-15T08:31:45;3.60;99.90
21104;DHT22;10710;53.398;-1.514;2023-02-15T08:34:15;3.70;99.90
21104;DHT22;10710;53.398;-1.514;2023-02-15T08:36:41;3.80;99.90
21104;DHT22;10710;53.398;-1.514;2023-02-15T08:39:07;3.90;99.90
21104;DHT22;10710;53.398;-1.514;2023-02-15T08:41:35;4.00;99.90
21104;DHT22;10710;53.398;-1.514;2023-02-15T08:44:06;4.00;99.90
21104;DHT22;10710;53.398;-1.514;2023-02-15T08:46:34;4.20;99.90
21104;DHT22;10710;53.398;-1.514;2023-02-15T08:49:00;4.30;99.90
21104;DHT22;10710;53.398;-1.514;2023-02-15T08:51:29;4.40;99.90
21104;DHT22;10710;53.398;-1.514;2023-02-15T08:53:57;4.50;99.90
21104;DHT22;10710;53.398;-1.514;2023-02-15T08:56:25;4.70;99.90
21104;DHT22;10710;53.398;-1.514;2023-02-15T08:58:52;4.90;99.90
21104;DHT22;10710;53.398;-1.514;2023-02-15T09:01:30;5.10;99.90
21104;DHT22;10710;53.398;-1.514;2023-02-15T09:03:58;5.20;99.90
21104;DHT22;10710;53.398;-1.514;2023-02-15T09:06:24;5.20;99.90
21104;DHT22;10710;53.398;-1.514;2023-02-15T09:08:50;5.40;99.90
21104;DHT22;10710;53.398;-1.514;2023-02-15T09:11:31;5.50;99.90
21104;DHT22;10710;53.398;-1.514;2023-02-15T09:14:01;5.70;99.90
21104;DHT22;10710;53.398;-1.514;2023-02-15T09:16:29;5.80;99.90
21104;DHT22;10710;53.398;-1.514;2023-02-15T09:18:56;5.80;99.90
21104;DHT22;10710;53.398;-1.514;2023-02-15T09:21:23;5.90;99.90
21104;DHT22;10710;53.398;-1.514;2023-02-15T09:23:52;6.10;99.90
21104;DHT22;10710;53.398;-1.514;2023-02-15T09:26:21;6.10;99.90
21104;DHT22;10710;53.398;-1.514;2023-02-15T09:28:48;6.40;99.90
21104;DHT22;10710;53.398;-1.514;2023-02-15T09:31:18;6.60;99.90
21104;DHT22;10710;53.398;-1.514;2023-02-15T09:33:46;6.80;99.90
21104;DHT22;10710;53.398;-1.514;2023-02-15T09:36:24;7.10;99.90
21104;DHT22;10710;53.398;-1.514;2023-02-15T09:38:58;7.30;99.90
21104;DHT22;10710;53.398;-1.514;2023-02-15T10:06:59;8.90;99.90
21104;DHT22;10710;53.398;-1.514;2023-02-15T10:28:23;9.60;99.90
21104;DHT22;10710;53.398;-1.514;2023-02-15T10:30:51;9.70;99.90
21104;DHT22;10710;53.398;-1.514;2023-02-15T10:33:42;9.80;99.90
21104;DHT22;10710;53.398;-1.514;2023-02-15T10:39:05;9.90;99.90
21104;DHT22;10710;53.398;-1.514;2023-02-15T10:47:29;10.20;99.90
21104;DHT22;10710;53.398;-1.514;2023-02-15T10:50:20;10.30;99.90
21104;DHT22;10710;53.398;-1.514;2023-02-15T10:53:11;10.30;99.90
21104;DHT22;10710;53.398;-1.514;2023-02-15T11:01:34;10.60;99.90
21104;DHT22;10710;53.398;-1.514;2023-02-15T11:06:57;10.60;99.90
21104;DHT22;10710;53.398;-1.514;2023-02-15T11:09:33;10.70;99.90
21104;DHT22;10710;53.398;-1.514;2023-02-15T11:12:00;10.80;99.90
21104;DHT22;10710;53.398;-1.514;2023-02-15T11:14:38;10.90;99.90
21104;DHT22;10710;53.398;-1.514;2023-02-15T11:17:10;10.90;99.90
21104;DHT22;10710;53.398;-1.514;2023-02-15T11:19:58;11.00;99.90
21104;DHT22;10710;53.398;-1.514;2023-02-15T11:22:30;11.10;99.90
21104;DHT22;10710;53.398;-1.514;2023-02-15T11:24:58;11.10;99.90
21104;DHT22;10710;53.398;-1.514;2023-02-15T11:27:29;11.20;99.90
21104;DHT22;10710;53.398;-1.514;2023-02-15T11:30:11;11.20;99.90
21104;DHT22;10710;53.398;-1.514;2023-02-15T11:32:46;11.30;99.90
21104;DHT22;10710;53.398;-1.514;2023-02-15T11:38:04;11.40;99.90
21104;DHT22;10710;53.398;-1.514;2023-02-15T11:40:35;11.50;99.90
21104;DHT22;10710;53.398;-1.514;2023-02-15T11:43:06;11.60;99.90
21104;DHT22;10710;53.398;-1.514;2023-02-15T11:45:37;11.60;99.90
21104;DHT22;10710;53.398;-1.514;2023-02-15T11:48:13;11.60;99.90
21104;DHT22;10710;53.398;-1.514;2023-02-15T11:50:40;11.70;99.90
21104;DHT22;10710;53.398;-1.514;2023-02-15T11:53:15;11.80;99.90
21104;DHT22;10710;53.398;-1.514;2023-02-15T11:55:47;11.90;99.90
21104;DHT22;10710;53.398;-1.514;2023-02-15T12:01:00;12.10;99.90
21104;DHT22;10710;53.398;-1.514;2023-02-15T12:06:23;12.20;99.90
21104;DHT22;10710;53.398;-1.514;2023-02-15T12:09:00;12.30;99.90
21104;DHT22;10710;53.398;-1.514;2023-02-15T12:11:37;12.40;99.90
21104;DHT22;10710;53.398;-1.514;2023-02-15T12:14:06;12.40;99.90
21104;DHT22;10710;53.398;-1.514;2023-02-15T12:16:44;12.40;99.90
21104;DHT22;10710;53.398;-1.514;2023-02-15T12:19:32;12.40;99.90
21104;DHT22;10710;53.398;-1.514;2023-02-15T12:22:01;12.50;99.90
21104;DHT22;10710;53.398;-1.514;2023-02-15T12:24:30;12.50;99.90
21104;DHT22;10710;53.398;-1.514;2023-02-15T12:29:29;12.60;99.90
21104;DHT22;10710;53.398;-1.514;2023-02-15T12:31:56;12.70;99.90
21104;DHT22;10710;53.398;-1.514;2023-02-15T12:34:30;12.80;99.90
21104;DHT22;10710;53.398;-1.514;2023-02-15T12:37:00;12.80;99.90
21104;DHT22;10710;53.398;-1.514;2023-02-15T12:39:28;13.00;99.90
21104;DHT22;10710;53.398;-1.514;2023-02-15T12:44:28;12.80;99.90
21104;DHT22;10710;53.398;-1.514;2023-02-15T12:47:00;12.80;99.90
21104;DHT22;10710;53.398;-1.514;2023-02-15T12:49:28;12.80;99.90
21104;DHT22;10710;53.398;-1.514;2023-02-15T12:52:02;12.80;99.90
21104;DHT22;10710;53.398;-1.514;2023-02-15T12:54:34;12.70;99.90
21104;DHT22;10710;53.398;-1.514;2023-02-15T12:57:14;12.70;99.90
21104;DHT22;10710;53.398;-1.514;2023-02-15T12:59:54;12.60;99.90
21104;DHT22;10710;53.398;-1.514;2023-02-15T13:02:26;12.60;99.90
21104;DHT22;10710;53.398;-1.514;2023-02-15T13:04:53;12.50;99.90
21104;DHT22;10710;53.398;-1.514;2023-02-15T13:07:19;12.50;99.90
21104;DHT22;10710;53.398;-1.514;2023-02-15T13:09:46;12.50;99.90
21104;DHT22;10710;53.398;-1.514;2023-02-15T13:12:24;12.50;99.90
21104;DHT22;10710;53.398;-1.514;2023-02-15T13:14:55;12.40;99.90
21104;DHT22;10710;53.398;-1.514;2023-02-15T13:17:30;12.50;99.90
21104;DHT22;10710;53.398;-1.514;2023-02-15T13:20:02;12.40;99.90
21104;DHT22;10710;53.398;-1.514;2023-02-15T13:22:39;12.50;99.90
21104;DHT22;10710;53.398;-1.514;2023-02-15T13:25:28;12.50;99.90
21104;DHT22;10710;53.398;-1.514;2023-02-15T13:27:57;12.50;99.90
21104;DHT22;10710;53.398;-1.514;2023-02-15T13:30:30;12.40;99.90
21104;DHT22;10710;53.398;-1.514;2023-02-15T13:33:03;12.40;99.90
21104;DHT22;10710;53.398;-1.514;2023-02-15T13:35:40;12.40;99.90
21104;DHT22;10710;53.398;-1.514;2023-02-15T13:40:53;12.50;99.90
21104;DHT22;10710;53.398;-1.514;2023-02-15T13:57:37;13.50;99.90
21104;DHT22;10710;53.398;-1.514;2023-02-15T14:06:00;13.80;99.90
21104;DHT22;10710;53.398;-1.514;2023-02-15T14:28:43;13.40;99.90
21104;DHT22;10710;53.398;-1.514;2023-02-15T14:30:38;13.40;99.90
21104;DHT22;10710;53.398;-1.514;2023-02-15T14:33:20;13.30;99.90
21104;DHT22;10710;53.398;-1.514;2023-02-15T14:35:49;13.30;99.90
21104;DHT22;10710;53.398;-1.514;2023-02-15T14:38:45;13.30;99.90
21104;DHT22;10710;53.398;-1.514;2023-02-15T14:41:40;13.30;99.90
21104;DHT22;10710;53.398;-1.514;2023-02-15T14:49:27;13.30;99.90
21104;DHT22;10710;53.398;-1.514;2023-02-15T14:51:56;13.40;99.90
21104;DHT22;10710;53.398;-1.514;2023-02-15T15:02:18;13.30;99.90
21104;DHT22;10710;53.398;-1.514;2023-02-15T15:04:57;13.20;99.90
21104;DHT22;10710;53.398;-1.514;2023-02-15T15:07:27;13.20;99.90
21104;DHT22;10710;53.398;-1.514;2023-02-15T15:10:32;13.10;99.90
21104;DHT22;10710;53.398;-1.514;2023-02-15T15:12:53;13.10;99.90
21104;DHT22;10710;53.398;-1.514;2023-02-15T15:18:49;13.10;99.90
21104;DHT22;10710;53.398;-1.514;2023-02-15T15:20:50;13.00;99.90
21104;DHT22;10710;53.398;-1.514;2023-02-15T15:25:49;12.90;99.90
21104;DHT22;10710;53.398;-1.514;2023-02-15T15:31:20;12.90;99.90
21104;DHT22;10710;53.398;-1.514;2023-02-15T15:34:17;12.90;99.90
21104;DHT22;10710;53.398;-1.514;2023-02-15T15:39:40;12.80;99.90
21104;DHT22;10710;53.398;-1.514;2023-02-15T15:50:43;12.70;99.90
21104;DHT22;10710;53.398;-1.514;2023-02-15T15:53:20;12.70;99.90
21104;DHT22;10710;53.398;-1.514;2023-02-15T15:55:48;12.70;99.90
21104;DHT22;10710;53.398;-1.514;2023-02-15T15:58:17;12.60;99.90
21104;DHT22;10710;53.398;-1.514;2023-02-15T16:01:21;12.60;99.90
21104;DHT22;10710;53.398;-1.514;2023-02-15T16:03:49;12.50;99.90
21104;DHT22;10710;53.398;-1.514;2023-02-15T16:06:27;12.40;99.90
21104;DHT22;10710;53.398;-1.514;2023-02-15T16:08:53;12.30;99.90
21104;DHT22;10710;53.398;-1.514;2023-02-15T16:11:26;12.20;99.90
21104;DHT22;10710;53.398;-1.514;2023-02-15T16:13:52;12.10;99.90
21104;DHT22;10710;53.398;-1.514;2023-02-15T16:16:24;12.00;99.90
21104;DHT22;10710;53.398;-1.514;2023-02-15T16:18:54;12.00;99.90
21104;DHT22;10710;53.398;-1.514;2023-02-15T16:21:23;12.00;99.90
21104;DHT22;10710;53.398;-1.514;2023-02-15T16:24:13;12.00;99.90
21104;DHT22;10710;53.398;-1.514;2023-02-15T16:27:40;12.00;99.90
21104;DHT22;10710;53.398;-1.514;2023-02-15T16:29:40;12.00;99.90
21104;DHT22;10710;53.398;-1.514;2023-02-15T16:34:55;11.90;99.90
21104;DHT22;10710;53.398;-1.514;2023-02-15T16:37:23;11.90;99.90
21104;DHT22;10710;53.398;-1.514;2023-02-15T16:39:51;11.80;99.90
21104;DHT22;10710;53.398;-1.514;2023-02-15T16:42:17;11.80;99.90
21104;DHT22;10710;53.398;-1.514;2023-02-15T16:44:55;11.70;99.90
21104;DHT22;10710;53.398;-1.514;2023-02-15T16:47:26;11.60;99.90
21104;DHT22;10710;53.398;-1.514;2023-02-15T16:49:56;11.50;99.90
21104;DHT22;10710;53.398;-1.514;2023-02-15T16:52:25;11.60;99.90
21104;DHT22;10710;53.398;-1.514;2023-02-15T16:57:24;11.40;99.90
21104;DHT22;10710;53.398;-1.514;2023-02-15T16:59:53;11.30;99.90
21104;DHT22;10710;53.398;-1.514;2023-02-15T17:02:25;11.30;99.90
21104;DHT22;10710;53.398;-1.514;2023-02-15T17:07:33;11.10;99.90
21104;DHT22;10710;53.398;-1.514;2023-02-15T17:12:53;10.90;99.90
21104;DHT22;10710;53.398;-1.514;2023-02-15T17:17:56;10.80;99.90
21104;DHT22;10710;53.398;-1.514;2023-02-15T17:20:23;10.70;99.90
21104;DHT22;10710;53.398;-1.514;2023-02-15T17:22:50;10.70;99.90
21104;DHT22;10710;53.398;-1.514;2023-02-15T17:25:24;10.60;99.90
21104;DHT22;10710;53.398;-1.514;2023-02-15T17:27:53;10.50;99.90
21104;DHT22;10710;53.398;-1.514;2023-02-15T17:30:28;10.40;99.90
21104;DHT22;10710;53.398;-1.514;2023-02-15T17:33:01;10.30;99.90
21104;DHT22;10710;53.398;-1.514;2023-02-15T17:35:31;10.10;99.90
21104;DHT22;10710;53.398;-1.514;2023-02-15T17:38:20;10.10;99.90
21104;DHT22;10710;53.398;-1.514;2023-02-15T17:40:46;10.00;99.90
21104;DHT22;10710;53.398;-1.514;2023-02-15T17:43:12;9.90;99.90
21104;DHT22;10710;53.398;-1.514;2023-02-15T17:45:48;9.80;99.90
21104;DHT22;10710;53.398;-1.514;2023-02-15T17:48:41;9.70;99.90
21104;DHT22;10710;53.398;-1.514;2023-02-15T17:51:12;9.60;99.90
21104;DHT22;10710;53.398;-1.514;2023-02-15T17:53:38;9.50;99.90
21104;DHT22;10710;53.398;-1.514;2023-02-15T17:56:04;9.40;99.90
21104;DHT22;10710;53.398;-1.514;2023-02-15T17:58:35;9.40;99.90
21104;DHT22;10710;53.398;-1.514;2023-02-15T18:01:06;9.30;99.90
21104;DHT22;10710;53.398;-1.514;2023-02-15T18:03:51;9.20;99.90
21104;DHT22;10710;53.398;-1.514;2023-02-15T18:06:38;9.10;99.90
21104;DHT22;10710;53.398;-1.514;2023-02-15T18:09:23;9.00;99.90
21104;DHT22;10710;53.398;-1.514;2023-02-15T18:12:20;8.90;99.90
21104;DHT22;10710;53.398;-1.514;2023-02-15T18:14:46;8.70;99.90
21104;DHT22;10710;53.398;-1.514;2023-02-15T18:17:13;8.70;99.90
21104;DHT22;10710;53.398;-1.514;2023-02-15T18:19:41;8.70;99.90
21104;DHT22;10710;53.398;-1.514;2023-02-15T18:22:15;8.60;99.90
21104;DHT22;10710;53.398;-1.514;2023-02-15T18:24:41;8.60;99.90
21104;DHT22;10710;53.398;-1.514;2023-02-15T18:27:09;8.60;99.90
21104;DHT22;10710;53.398;-1.514;2023-02-15T18:29:36;8.50;99.90
21104;DHT22;10710;53.398;-1.514;2023-02-15T18:32:01;8.50;99.90
21104;DHT22;10710;53.398;-1.514;2023-02-15T18:34:29;8.50;99.90
21104;DHT22;10710;53.398;-1.514;2023-02-15T18:36:57;8.40;99.90
21104;DHT22;10710;53.398;-1.514;2023-02-15T18:39:36;8.40;99.90
21104;DHT22;10710;53.398;-1.514;2023-02-15T18:42:08;8.40;99.90
21104;DHT22;10710;53.398;-1.514;2023-02-15T18:44:38;8.40;99.90
21104;DHT22;10710;53.398;-1.514;2023-02-15T18:47:04;8.50;99.90
21104;DHT22;10710;53.398;-1.514;2023-02-15T18:49:29;8.60;99.90
21104;DHT22;10710;53.398;-1.514;2023-02-15T18:51:55;8.60;99.90
21104;DHT22;10710;53.398;-1.514;2023-02-15T18:54:22;8.50;99.90
21104;DHT22;10710;53.398;-1.514;2023-02-15T18:56:57;8.50;99.90
21104;DHT22;10710;53.398;-1.514;2023-02-15T18:59:26;8.50;99.90
21104;DHT22;10710;53.398;-1.514;2023-02-15T19:01:52;8.50;99.90
21104;DHT22;10710;53.398;-1.514;2023-02-15T19:04:18;8.40;99.90